createdAt,value
2024-02-03T00:02:31.473Z,48.10
2024-02-03T00:05:24.476Z,48.10
2024-02-03T00:08:19.067Z,48.10
2024-02-03T00:11:12.623Z,48.20
2024-02-03T00:14:05.548Z,48.10
2024-02-03T00:16:59.426Z,48.10
2024-02-03T00:19:54.065Z,48.10
2024-02-03T00:22:52.010Z,48.10
2024-02-03T00:25:46.993Z,48.10
2024-02-03T00:28:40.527Z,48.10
2024-02-03T00:31:33.446Z,48.10
2024-02-03T00:34:26.548Z,48.10
2024-02-03T00:37:19.587Z,48.10
2024-02-03T00:40:13.779Z,48.10
2024-02-03T00:43:08.961Z,48.10
2024-02-03T00:46:02.884Z,48.10
2024-02-03T00:48:56.806Z,48.00
2024-02-03T00:51:50.148Z,48.00
2024-02-03T00:54:43.456Z,48.00
2024-02-03T00:57:36.676Z,48.10
2024-02-03T01:00:31.951Z,48.00
2024-02-03T01:03:25.906Z,48.10
2024-02-03T01:06:19.875Z,48.10
2024-02-03T01:09:18.094Z,48.10
2024-02-03T01:12:11.841Z,48.10
2024-02-03T01:15:06.838Z,48.10
2024-02-03T01:18:04.862Z,48.00
2024-02-03T01:20:58.725Z,48.00
2024-02-03T01:23:51.932Z,48.00
2024-02-03T01:26:45.616Z,48.00
2024-02-03T01:29:38.497Z,48.00
2024-02-03T01:32:31.561Z,48.00
2024-02-03T01:35:28.898Z,48.00
2024-02-03T01:38:24.121Z,48.00
2024-02-03T01:41:17.655Z,48.00
2024-02-03T01:44:10.653Z,48.00
2024-02-03T01:47:05.684Z,48.00
2024-02-03T01:49:58.680Z,48.00
2024-02-03T01:52:53.239Z,47.90
2024-02-03T01:55:47.466Z,47.90
2024-02-03T01:58:41.661Z,47.90
2024-02-03T02:01:34.669Z,48.00
2024-02-03T02:04:27.832Z,47.90
2024-02-03T02:07:21.835Z,47.90
2024-02-03T02:10:17.555Z,47.90
2024-02-03T02:13:11.692Z,48.50
2024-02-03T02:16:06.718Z,47.90
2024-02-03T02:18:59.840Z,47.90
2024-02-03T02:21:55.318Z,47.90
2024-02-03T02:24:48.619Z,47.90
2024-02-03T02:27:41.609Z,47.90
2024-02-03T02:30:34.539Z,47.90
2024-02-03T02:33:28.560Z,47.80
2024-02-03T02:36:22.507Z,47.90
2024-02-03T02:39:19.021Z,47.80
2024-02-03T02:42:13.839Z,47.90
2024-02-03T02:45:08.566Z,47.90
2024-02-03T02:48:01.489Z,47.90
2024-02-03T02:50:55.546Z,47.80
2024-02-03T02:53:48.631Z,47.90
2024-02-03T02:56:42.956Z,47.90
2024-02-03T02:59:37.923Z,47.80
2024-02-03T03:02:31.567Z,47.80
2024-02-03T03:05:24.934Z,47.80
2024-02-03T03:08:18.244Z,47.80
2024-02-03T03:11:13.260Z,47.80
2024-02-03T03:14:09.661Z,47.80
2024-02-03T03:17:03.699Z,47.80
2024-02-03T03:19:56.883Z,47.80
2024-02-03T03:22:50.558Z,47.80
2024-02-03T03:25:44.058Z,47.80
2024-02-03T03:28:38.276Z,47.80
2024-02-03T03:31:32.599Z,47.80
2024-02-03T03:34:25.693Z,47.80
2024-02-03T03:37:18.644Z,47.80
2024-02-03T03:40:13.274Z,47.80
2024-02-03T03:43:07.186Z,47.80
2024-02-03T03:46:00.787Z,47.80
2024-02-03T03:48:54.746Z,47.70
2024-02-03T03:51:47.672Z,47.80
2024-02-03T03:54:40.216Z,47.70
2024-02-03T03:57:35.971Z,47.80
2024-02-03T04:00:29.416Z,47.70
2024-02-03T04:03:22.756Z,47.70
2024-02-03T04:06:16.756Z,47.70
2024-02-03T04:09:10.525Z,47.70
2024-02-03T04:12:04.461Z,47.70
2024-02-03T04:14:57.939Z,47.70
2024-02-03T04:17:52.060Z,47.70
2024-02-03T04:20:45.781Z,47.70
2024-02-03T04:23:40.859Z,47.70
2024-02-03T04:26:33.744Z,47.70
2024-02-03T04:29:26.732Z,47.60
2024-02-03T04:32:19.703Z,47.70
2024-02-03T04:35:12.877Z,47.70
2024-02-03T04:38:06.304Z,47.70
2024-02-03T04:41:00.934Z,47.70
2024-02-03T04:43:54.424Z,47.70
2024-02-03T04:46:49.103Z,47.60
2024-02-03T04:49:43.116Z,47.70
2024-02-03T04:52:36.674Z,47.70
2024-02-03T04:55:29.287Z,47.70
2024-02-03T04:58:24.167Z,47.70
2024-02-03T05:01:17.402Z,47.70
2024-02-03T05:04:10.841Z,47.70
2024-02-03T05:07:03.665Z,47.70
2024-02-03T05:09:56.254Z,47.70
2024-02-03T05:12:49.523Z,47.70
2024-02-03T05:15:46.404Z,47.70
2024-02-03T05:18:39.883Z,47.70
2024-02-03T05:21:33.941Z,47.60
2024-02-03T05:24:27.657Z,47.70
2024-02-03T05:27:21.593Z,47.70
2024-02-03T05:30:15.433Z,47.60
2024-02-03T05:33:10.184Z,47.70
2024-02-03T05:36:03.419Z,47.60
2024-02-03T05:38:56.785Z,47.70
2024-02-03T05:41:50.568Z,47.60
2024-02-03T05:44:43.459Z,47.60
2024-02-03T05:47:37.104Z,47.60
2024-02-03T05:50:32.067Z,47.70
2024-02-03T05:53:25.679Z,48.10
2024-02-03T05:56:18.435Z,47.80
2024-02-03T05:59:26.999Z,47.70
2024-02-03T06:02:24.695Z,47.90
2024-02-03T06:05:18.662Z,47.80
2024-02-03T06:08:12.813Z,48.30
2024-02-03T06:11:06.043Z,48.00
2024-02-03T06:13:59.664Z,47.90
2024-02-03T06:16:54.965Z,47.90
2024-02-03T06:19:48.792Z,47.90
2024-02-03T06:22:41.890Z,47.90
2024-02-03T06:25:36.270Z,47.90
2024-02-03T06:28:29.787Z,47.90
2024-02-03T06:31:22.632Z,48.50
2024-02-03T06:34:16.623Z,47.90
2024-02-03T06:37:09.709Z,47.90
2024-02-03T06:40:02.644Z,47.90
2024-02-03T06:42:56.787Z,47.90
2024-02-03T06:45:49.892Z,47.90
2024-02-03T06:48:42.811Z,47.90
2024-02-03T06:51:36.461Z,47.90
2024-02-03T06:54:29.781Z,47.90
2024-02-03T06:57:22.786Z,47.90
2024-02-03T07:00:17.551Z,47.90
2024-02-03T07:03:10.572Z,47.90
2024-02-03T07:06:03.455Z,48.10
2024-02-03T07:08:56.890Z,48.70
2024-02-03T07:11:57.213Z,48.90
2024-02-03T07:14:56.604Z,49.00
2024-02-03T07:17:52.156Z,49.30
2024-02-03T07:20:46.020Z,49.30
2024-02-03T07:23:38.864Z,49.50
2024-02-03T07:26:31.571Z,49.50
2024-02-03T07:29:24.841Z,49.60
2024-02-03T07:32:17.531Z,49.60
2024-02-03T07:35:13.109Z,52.50
2024-02-03T07:38:06.700Z,52.70
2024-02-03T07:40:59.594Z,51.10
2024-02-03T07:43:52.505Z,48.50
2024-02-03T07:46:45.670Z,47.80
2024-02-03T07:49:39.665Z,47.70
2024-02-03T07:52:34.946Z,45.90
2024-02-03T07:55:29.288Z,47.60
2024-02-03T07:58:22.967Z,47.10
2024-02-03T08:01:15.927Z,46.80
2024-02-03T08:04:08.507Z,46.60
2024-02-03T08:07:03.701Z,47.10
2024-02-03T08:09:58.327Z,47.20
2024-02-03T08:12:53.183Z,47.30
2024-02-03T08:15:46.811Z,47.50
2024-02-03T08:18:40.078Z,47.70
2024-02-03T08:21:33.732Z,47.80
2024-02-03T08:24:26.865Z,48.00
2024-02-03T08:27:21.005Z,48.00
2024-02-03T08:30:14.977Z,48.10
2024-02-03T08:33:10.534Z,48.20
2024-02-03T08:36:08.860Z,48.20
2024-02-03T08:39:02.603Z,48.00
2024-02-03T08:41:55.793Z,47.70
2024-02-03T08:44:50.699Z,47.60
2024-02-03T08:47:46.526Z,47.60
2024-02-03T08:50:39.772Z,47.70
2024-02-03T08:53:33.733Z,47.70
2024-02-03T08:56:26.449Z,47.80
2024-02-03T08:59:19.902Z,47.90
2024-02-03T09:02:13.858Z,47.90
2024-02-03T09:05:08.225Z,48.00
2024-02-03T09:08:01.922Z,48.00
2024-02-03T09:10:57.077Z,48.10
2024-02-03T09:13:50.625Z,48.10
2024-02-03T09:16:44.071Z,48.10
2024-02-03T09:19:39.208Z,48.20
2024-02-03T09:22:32.764Z,48.20
2024-02-03T09:25:25.765Z,48.20
2024-02-03T09:28:18.953Z,48.20
2024-02-03T09:31:18.467Z,48.30
2024-02-03T09:34:11.788Z,48.30
2024-02-03T09:40:02.957Z,48.30
2024-02-03T09:42:57.593Z,48.30
2024-02-03T09:45:51.115Z,48.40
2024-02-03T09:48:44.253Z,48.40
2024-02-03T09:51:38.174Z,48.50
2024-02-03T09:54:34.417Z,48.40
2024-02-03T09:57:28.318Z,48.50
2024-02-03T10:00:25.292Z,48.50
2024-02-03T10:03:20.176Z,48.60
2024-02-03T10:06:14.407Z,48.60
2024-02-03T10:09:07.457Z,48.60
2024-02-03T10:12:03.196Z,48.50
2024-02-03T10:15:02.206Z,48.60
2024-02-03T10:17:58.019Z,48.60
2024-02-03T10:20:50.906Z,48.60
2024-02-03T10:23:51.463Z,48.60
2024-02-03T10:26:45.044Z,48.60
2024-02-03T10:29:39.260Z,48.60
2024-02-03T10:32:32.774Z,48.60
2024-02-03T10:35:28.135Z,48.60
2024-02-03T10:38:21.330Z,48.60
2024-02-03T10:41:17.795Z,48.60
2024-02-03T10:44:12.036Z,48.70
2024-02-03T10:47:09.702Z,48.60
2024-02-03T10:50:05.497Z,48.60
2024-02-03T10:53:02.616Z,48.70
2024-02-03T10:55:59.817Z,48.70
2024-02-03T10:58:53.114Z,48.70
2024-02-03T11:01:45.894Z,48.70
2024-02-03T11:04:43.299Z,48.70
2024-02-03T11:07:38.596Z,48.70
2024-02-03T11:10:31.934Z,48.70
2024-02-03T11:13:26.090Z,48.80
2024-02-03T11:16:19.910Z,48.80
2024-02-03T11:19:14.742Z,48.80
2024-02-03T11:22:09.150Z,48.80
2024-02-03T11:25:02.842Z,48.80
2024-02-03T11:27:56.036Z,48.80
2024-02-03T11:30:48.975Z,48.80
2024-02-03T11:33:47.331Z,48.80
2024-02-03T11:36:42.586Z,48.80
2024-02-03T11:39:38.712Z,48.90
2024-02-03T11:42:31.758Z,48.90
2024-02-03T11:45:30.742Z,48.90
2024-02-03T11:48:24.081Z,48.90
2024-02-03T11:51:17.391Z,49.00
2024-02-03T11:54:11.082Z,49.00
2024-02-03T11:57:05.499Z,49.00
2024-02-03T12:00:01.939Z,49.00
2024-02-03T12:02:55.279Z,49.00
2024-02-03T12:05:48.883Z,49.00
2024-02-03T12:08:42.547Z,48.90
2024-02-03T12:11:36.370Z,49.00
2024-02-03T12:14:32.173Z,48.90
2024-02-03T12:17:25.358Z,48.90
2024-02-03T12:20:24.276Z,48.90
2024-02-03T12:23:20.459Z,49.00
2024-02-03T12:26:14.408Z,49.00
2024-02-03T12:29:07.984Z,48.90
2024-02-03T12:32:02.207Z,49.00
2024-02-03T12:34:55.171Z,49.00
2024-02-03T12:37:48.170Z,49.00
2024-02-03T12:40:41.092Z,49.00
2024-02-03T12:43:33.924Z,49.00
2024-02-03T12:46:27.269Z,49.00
2024-02-03T12:49:21.562Z,49.00
2024-02-03T12:52:15.856Z,49.10
2024-02-03T12:55:10.818Z,49.00
2024-02-03T12:58:05.370Z,49.00
2024-02-03T13:00:59.165Z,49.00
2024-02-03T13:03:52.371Z,49.00
2024-02-03T13:06:48.426Z,49.00
2024-02-03T13:09:42.425Z,49.00
2024-02-03T13:12:36.345Z,49.00
2024-02-03T13:15:30.175Z,49.00
2024-02-03T13:18:24.128Z,49.60
2024-02-03T13:21:17.408Z,49.00
2024-02-03T13:24:12.259Z,49.00
2024-02-03T13:27:05.425Z,49.00
2024-02-03T13:29:59.132Z,48.90
2024-02-03T13:32:52.360Z,49.00
2024-02-03T13:35:46.014Z,49.00
2024-02-03T13:38:40.369Z,49.00
2024-02-03T13:41:35.283Z,49.00
2024-02-03T13:44:28.328Z,49.00
2024-02-03T13:47:21.059Z,49.00
2024-02-03T13:50:13.864Z,49.00
2024-02-03T13:53:07.233Z,49.00
2024-02-03T13:56:01.512Z,49.00
2024-02-03T13:58:56.213Z,49.00
2024-02-03T14:01:48.934Z,49.00
2024-02-03T14:04:44.405Z,49.00
2024-02-03T14:07:37.887Z,49.00
2024-02-03T14:10:32.816Z,49.10
2024-02-03T14:13:25.753Z,49.10
2024-02-03T14:16:20.813Z,49.00
2024-02-03T14:19:14.562Z,49.00
2024-02-03T14:22:08.014Z,49.00
2024-02-03T14:25:02.216Z,49.10
2024-02-03T14:27:54.863Z,49.00
2024-02-03T14:30:48.160Z,49.10
2024-02-03T14:33:43.190Z,49.10
2024-02-03T14:36:35.892Z,49.00
2024-02-03T14:39:30.488Z,49.10
2024-02-03T14:42:24.957Z,49.10
2024-02-03T14:45:18.065Z,49.00
2024-02-03T14:48:12.015Z,49.10
2024-02-03T14:51:06.838Z,49.10
2024-02-03T14:54:00.089Z,49.00
2024-02-03T14:56:55.675Z,49.00
2024-02-03T14:59:50.194Z,49.00
2024-02-03T15:02:42.891Z,49.00
2024-02-03T15:05:36.198Z,49.00
2024-02-03T15:08:33.225Z,49.00
2024-02-03T15:11:28.029Z,49.00
2024-02-03T15:14:21.045Z,49.00
2024-02-03T15:17:16.844Z,49.00
2024-02-03T15:20:11.519Z,49.00
2024-02-03T15:23:05.647Z,48.90
2024-02-03T15:26:00.440Z,49.00
2024-02-03T15:28:54.033Z,48.90
2024-02-03T15:31:46.781Z,48.90
2024-02-03T15:34:39.937Z,49.00
2024-02-03T15:37:32.717Z,49.00
2024-02-03T15:40:27.490Z,49.00
2024-02-03T15:43:22.569Z,49.00
2024-02-03T15:46:18.114Z,48.90
2024-02-03T15:49:10.981Z,48.90
2024-02-03T15:52:05.366Z,48.90
2024-02-03T15:54:57.835Z,48.90
2024-02-03T15:57:51.009Z,48.90
2024-02-03T16:00:45.707Z,48.90
2024-02-03T16:03:39.502Z,48.90
2024-02-03T16:06:33.470Z,49.00
2024-02-03T16:09:27.520Z,49.00
2024-02-03T16:12:22.705Z,48.90
2024-02-03T16:15:16.532Z,48.90
2024-02-03T16:18:12.270Z,48.90
2024-02-03T16:21:05.634Z,48.90
2024-02-03T16:24:02.088Z,48.90
2024-02-03T16:26:55.179Z,49.00
2024-02-03T16:29:48.654Z,48.90
2024-02-03T16:32:41.993Z,49.60
2024-02-03T16:35:36.745Z,48.90
2024-02-03T16:38:30.914Z,48.90
2024-02-03T16:41:24.780Z,48.90
2024-02-03T16:44:18.182Z,49.00
2024-02-03T16:47:11.352Z,48.90
2024-02-03T16:50:05.342Z,49.00
2024-02-03T16:52:59.510Z,48.90
2024-02-03T16:55:52.977Z,48.90
2024-02-03T16:58:46.187Z,48.90
2024-02-03T17:01:44.297Z,49.00
2024-02-03T17:04:39.907Z,48.90
2024-02-03T17:07:35.138Z,48.90
2024-02-03T17:10:29.635Z,48.90
2024-02-03T17:13:24.988Z,48.90
2024-02-03T17:16:20.365Z,49.00
2024-02-03T17:19:13.732Z,48.90
2024-02-03T17:22:07.005Z,49.00
2024-02-03T17:25:00.560Z,48.90
2024-02-03T17:27:55.403Z,48.90
2024-02-03T17:30:48.221Z,48.90
2024-02-03T17:33:41.370Z,48.90
2024-02-03T17:36:34.117Z,48.90
2024-02-03T17:39:27.103Z,48.90
2024-02-03T17:42:21.525Z,48.90
2024-02-03T17:45:19.187Z,48.90
2024-02-03T17:48:13.230Z,48.90
2024-02-03T17:51:06.754Z,48.90
2024-02-03T17:54:00.026Z,48.90
2024-02-03T17:56:53.082Z,48.90
2024-02-03T17:59:46.421Z,48.90
2024-02-03T18:02:42.168Z,48.90
2024-02-03T18:05:36.546Z,48.90
2024-02-03T18:08:30.233Z,49.00
2024-02-03T18:11:25.902Z,49.00
2024-02-03T18:14:19.128Z,49.00
2024-02-03T18:17:12.459Z,49.10
2024-02-03T18:20:12.862Z,49.00
2024-02-03T18:23:08.281Z,48.90
2024-02-03T18:26:01.505Z,48.80
2024-02-03T18:28:55.097Z,48.80
2024-02-03T18:31:49.235Z,48.80
2024-02-03T18:34:42.434Z,48.90
2024-02-03T18:37:38.742Z,48.90
2024-02-03T18:40:33.174Z,49.00
2024-02-03T18:43:26.088Z,49.00
2024-02-03T18:46:19.297Z,49.00
2024-02-03T18:49:12.962Z,49.10
2024-02-03T18:52:06.614Z,49.10
2024-02-03T18:55:01.570Z,49.20
2024-02-03T18:57:56.185Z,49.20
2024-02-03T19:00:49.540Z,49.30
2024-02-03T19:03:42.642Z,49.30
2024-02-03T19:06:36.134Z,49.30
2024-02-03T19:09:29.538Z,49.40
2024-02-03T19:12:24.437Z,49.30
2024-02-03T19:15:18.783Z,49.40
2024-02-03T19:18:14.006Z,49.40
2024-02-03T19:21:11.865Z,49.40
2024-02-03T19:24:08.703Z,49.50
2024-02-03T19:27:02.409Z,50.10
2024-02-03T19:29:56.580Z,49.50
2024-02-03T19:32:49.433Z,49.50
2024-02-03T19:35:43.738Z,49.60
2024-02-03T19:38:37.371Z,49.60
2024-02-03T19:41:30.388Z,49.60
2024-02-03T19:44:23.262Z,49.60
2024-02-03T19:47:17.675Z,49.60
2024-02-03T19:50:13.258Z,49.60
2024-02-03T19:53:06.489Z,49.70
2024-02-03T19:55:59.087Z,49.70
2024-02-03T19:58:53.437Z,49.60
2024-02-03T20:01:46.657Z,49.70
2024-02-03T20:04:43.167Z,49.70
2024-02-03T20:07:38.215Z,49.70
2024-02-03T20:10:32.627Z,49.70
2024-02-03T20:13:27.553Z,49.70
2024-02-03T20:16:22.188Z,49.70
2024-02-03T20:19:15.568Z,49.70
2024-02-03T20:22:12.814Z,49.70
2024-02-03T20:25:06.688Z,49.70
2024-02-03T20:28:00.584Z,49.70
2024-02-03T20:30:54.370Z,49.80
2024-02-03T20:33:47.607Z,49.80
2024-02-03T20:36:41.159Z,49.90
2024-02-03T20:39:36.559Z,50.00
2024-02-03T20:42:29.763Z,50.00
2024-02-03T20:45:23.859Z,49.90
2024-02-03T20:48:18.673Z,49.90
2024-02-03T20:51:12.561Z,49.80
2024-02-03T20:54:05.263Z,49.80
2024-02-03T20:57:00.826Z,49.80
2024-02-03T20:59:54.522Z,49.80
2024-02-03T21:02:47.351Z,50.00
2024-02-03T21:05:40.875Z,50.10
2024-02-03T21:08:34.427Z,50.20
2024-02-03T21:11:31.872Z,50.30
2024-02-03T21:14:27.074Z,50.60
2024-02-03T21:17:20.602Z,50.70
2024-02-03T21:20:17.204Z,50.80
2024-02-03T21:23:14.315Z,51.00
2024-02-03T21:26:12.565Z,51.30
2024-02-03T21:29:05.320Z,51.50
2024-02-03T21:31:59.802Z,51.60
2024-02-03T21:34:54.469Z,51.80
2024-02-03T21:37:47.643Z,51.90
2024-02-03T21:40:41.652Z,51.90
2024-02-03T21:43:34.259Z,52.00
2024-02-03T21:46:27.786Z,52.30
2024-02-03T21:49:23.050Z,52.40
2024-02-03T21:52:16.170Z,52.40
2024-02-03T21:55:09.937Z,52.40
2024-02-03T21:58:04.641Z,52.60
2024-02-03T22:00:58.702Z,52.60
2024-02-03T22:03:54.224Z,52.80
2024-02-03T22:06:48.506Z,52.80
2024-02-03T22:09:42.144Z,52.80
2024-02-03T22:12:35.322Z,50.90
2024-02-03T22:15:28.665Z,50.80
2024-02-03T22:18:22.301Z,50.60
2024-02-03T22:21:15.677Z,50.50
2024-02-03T22:24:10.195Z,50.30
2024-02-03T22:27:04.660Z,50.20
2024-02-03T22:29:57.170Z,50.20
2024-02-03T22:32:50.469Z,50.10
2024-02-03T22:35:43.664Z,50.00
2024-02-03T22:38:36.657Z,50.00
2024-02-03T22:41:30.886Z,50.00
2024-02-03T22:44:24.302Z,49.90
2024-02-03T22:47:19.218Z,49.80
2024-02-03T22:50:12.549Z,49.80
2024-02-03T22:53:06.400Z,49.80
2024-02-03T22:55:59.447Z,49.80
2024-02-03T22:58:54.020Z,49.70
2024-02-03T23:01:47.865Z,49.70
2024-02-03T23:04:41.399Z,49.70
2024-02-03T23:07:35.288Z,49.60
2024-02-03T23:10:28.544Z,49.60
2024-02-03T23:13:21.661Z,49.60
2024-02-03T23:16:18.566Z,49.60
2024-02-03T23:19:11.862Z,49.50
2024-02-03T23:22:06.142Z,49.50
2024-02-03T23:24:59.751Z,49.50
2024-02-03T23:27:53.839Z,49.50
2024-02-03T23:30:47.749Z,49.50
2024-02-03T23:33:42.459Z,49.50
2024-02-03T23:36:35.625Z,49.50
2024-02-03T23:39:28.413Z,49.40
2024-02-03T23:42:21.698Z,49.40
2024-02-03T23:45:14.482Z,49.40
2024-02-03T23:48:08.550Z,49.40
2024-02-03T23:51:02.749Z,49.40
2024-02-03T23:53:59.417Z,49.40
2024-02-03T23:56:52.330Z,49.40
2024-02-03T23:59:45.836Z,49.30
